sensor_id;sensor_type;location;lat;lon;timestamp;P1;durP1;ratioP1;P2;durP2;ratioP2
41141;SDS011;63666;52.284;20.890;2023-07-13T00:00:01;8.50;;;7.50;;
41141;SDS011;63666;52.284;20.890;2023-07-13T00:03:00;8.30;;;7.40;;
41141;SDS011;63666;52.284;20.890;2023-07-13T00:05:35;8.40;;;7.50;;
41141;SDS011;63666;52.284;20.890;2023-07-13T00:08:09;8.70;;;7.80;;
41141;SDS011;63666;52.284;20.890;2023-07-13T00:10:43;8.60;;;7.40;;
41141;SDS011;63666;52.284;20.890;2023-07-13T00:13:17;8.40;;;7.50;;
41141;SDS011;63666;52.284;20.890;2023-07-13T00:15:54;8.50;;;7.50;;
41141;SDS011;63666;52.284;20.890;2023-07-13T00:18:29;8.30;;;7.50;;
41141;SDS011;63666;52.284;20.890;2023-07-13T00:21:03;8.10;;;7.30;;
41141;SDS011;63666;52.284;20.890;2023-07-13T00:23:38;8.20;;;7.40;;
41141;SDS011;63666;52.284;20.890;2023-07-13T00:26:13;8.70;;;7.80;;
41141;SDS011;63666;52.284;20.890;2023-07-13T00:28:48;8.60;;;7.70;;
41141;SDS011;63666;52.284;20.890;2023-07-13T00:31:22;8.40;;;7.40;;
41141;SDS011;63666;52.284;20.890;2023-07-13T00:33:56;8.60;;;7.70;;
41141;SDS011;63666;52.284;20.890;2023-07-13T00:36:31;8.40;;;7.50;;
41141;SDS011;63666;52.284;20.890;2023-07-13T00:39:05;8.10;;;7.30;;
41141;SDS011;63666;52.284;20.890;2023-07-13T00:41:39;8.50;;;7.50;;
41141;SDS011;63666;52.284;20.890;2023-07-13T00:44:15;8.20;;;7.40;;
41141;SDS011;63666;52.284;20.890;2023-07-13T00:46:50;8.30;;;7.40;;
41141;SDS011;63666;52.284;20.890;2023-07-13T00:49:29;9.10;;;7.50;;
41141;SDS011;63666;52.284;20.890;2023-07-13T00:52:08;8.10;;;7.30;;
41141;SDS011;63666;52.284;20.890;2023-07-13T00:54:45;7.90;;;7.10;;
41141;SDS011;63666;52.284;20.890;2023-07-13T00:57:21;7.90;;;7.10;;
41141;SDS011;63666;52.284;20.890;2023-07-13T00:59:57;8.40;;;7.60;;
41141;SDS011;63666;52.284;20.890;2023-07-13T01:02:39;8.40;;;7.30;;
41141;SDS011;63666;52.284;20.890;2023-07-13T01:05:18;8.40;;;7.40;;
41141;SDS011;63666;52.284;20.890;2023-07-13T01:07:53;8.40;;;7.40;;
41141;SDS011;63666;52.284;20.890;2023-07-13T01:10:29;8.00;;;7.10;;
41141;SDS011;63666;52.284;20.890;2023-07-13T01:13:10;7.90;;;7.10;;
41141;SDS011;63666;52.284;20.890;2023-07-13T01:15:46;8.30;;;7.30;;
41141;SDS011;63666;52.284;20.890;2023-07-13T01:18:24;8.10;;;7.10;;
41141;SDS011;63666;52.284;20.890;2023-07-13T01:21:00;8.20;;;7.20;;
41141;SDS011;63666;52.284;20.890;2023-07-13T01:23:35;8.20;;;7.40;;
41141;SDS011;63666;52.284;20.890;2023-07-13T01:26:09;8.30;;;7.50;;
41141;SDS011;63666;52.284;20.890;2023-07-13T01:28:44;7.90;;;7.10;;
41141;SDS011;63666;52.284;20.890;2023-07-13T01:31:18;8.20;;;7.40;;
41141;SDS011;63666;52.284;20.890;2023-07-13T01:33:53;8.50;;;7.00;;
41141;SDS011;63666;52.284;20.890;2023-07-13T01:36:28;7.70;;;6.90;;
41141;SDS011;63666;52.284;20.890;2023-07-13T01:39:02;8.20;;;7.30;;
41141;SDS011;63666;52.284;20.890;2023-07-13T01:41:36;8.30;;;7.30;;
41141;SDS011;63666;52.284;20.890;2023-07-13T01:47:03;9.00;;;7.40;;
41141;SDS011;63666;52.284;20.890;2023-07-13T01:49:37;8.20;;;7.30;;
41141;SDS011;63666;52.284;20.890;2023-07-13T01:52:12;8.60;;;7.20;;
41141;SDS011;63666;52.284;20.890;2023-07-13T01:54:45;8.40;;;7.20;;
41141;SDS011;63666;52.284;20.890;2023-07-13T01:57:20;8.80;;;7.70;;
41141;SDS011;63666;52.284;20.890;2023-07-13T01:59:53;7.80;;;7.00;;
41141;SDS011;63666;52.284;20.890;2023-07-13T02:02:27;7.90;;;7.10;;
41141;SDS011;63666;52.284;20.890;2023-07-13T02:05:01;8.50;;;7.60;;
41141;SDS011;63666;52.284;20.890;2023-07-13T02:07:36;8.20;;;7.10;;
41141;SDS011;63666;52.284;20.890;2023-07-13T02:10:11;8.00;;;7.10;;
41141;SDS011;63666;52.284;20.890;2023-07-13T02:12:45;8.30;;;7.40;;
41141;SDS011;63666;52.284;20.890;2023-07-13T02:15:20;8.40;;;7.40;;
41141;SDS011;63666;52.284;20.890;2023-07-13T02:17:54;8.50;;;7.30;;
41141;SDS011;63666;52.284;20.890;2023-07-13T02:20:27;8.30;;;7.40;;
41141;SDS011;63666;52.284;20.890;2023-07-13T02:23:01;9.00;;;7.20;;
41141;SDS011;63666;52.284;20.890;2023-07-13T02:25:39;7.90;;;7.10;;
41141;SDS011;63666;52.284;20.890;2023-07-13T02:28:13;8.20;;;7.40;;
41141;SDS011;63666;52.284;20.890;2023-07-13T02:30:47;8.00;;;7.20;;
41141;SDS011;63666;52.284;20.890;2023-07-13T02:33:20;8.30;;;7.40;;
41141;SDS011;63666;52.284;20.890;2023-07-13T02:35:54;8.50;;;7.60;;
41141;SDS011;63666;52.284;20.890;2023-07-13T02:38:28;8.60;;;7.50;;
41141;SDS011;63666;52.284;20.890;2023-07-13T02:41:04;8.60;;;7.70;;
41141;SDS011;63666;52.284;20.890;2023-07-13T02:43:40;8.20;;;7.30;;
41141;SDS011;63666;52.284;20.890;2023-07-13T02:46:14;8.00;;;7.20;;
41141;SDS011;63666;52.284;20.890;2023-07-13T02:48:47;8.70;;;7.40;;
41141;SDS011;63666;52.284;20.890;2023-07-13T02:51:21;8.00;;;7.20;;
41141;SDS011;63666;52.284;20.890;2023-07-13T02:53:55;8.70;;;7.40;;
41141;SDS011;63666;52.284;20.890;2023-07-13T02:56:30;7.90;;;7.10;;
41141;SDS011;63666;52.284;20.890;2023-07-13T02:59:04;7.90;;;7.10;;
41141;SDS011;63666;52.284;20.890;2023-07-13T03:01:38;8.40;;;7.50;;
41141;SDS011;63666;52.284;20.890;2023-07-13T03:04:12;7.70;;;6.90;;
41141;SDS011;63666;52.284;20.890;2023-07-13T03:06:49;8.10;;;7.30;;
41141;SDS011;63666;52.284;20.890;2023-07-13T03:09:23;7.70;;;6.90;;
41141;SDS011;63666;52.284;20.890;2023-07-13T03:11:57;7.90;;;7.10;;
41141;SDS011;63666;52.284;20.890;2023-07-13T03:14:31;7.90;;;7.10;;
41141;SDS011;63666;52.284;20.890;2023-07-13T03:17:06;7.60;;;6.70;;
41141;SDS011;63666;52.284;20.890;2023-07-13T03:19:39;7.60;;;6.80;;
41141;SDS011;63666;52.284;20.890;2023-07-13T03:22:14;8.30;;;6.90;;
41141;SDS011;63666;52.284;20.890;2023-07-13T03:24:49;7.70;;;6.90;;
41141;SDS011;63666;52.284;20.890;2023-07-13T03:27:23;8.00;;;7.20;;
41141;SDS011;63666;52.284;20.890;2023-07-13T03:29:57;8.00;;;7.00;;
41141;SDS011;63666;52.284;20.890;2023-07-13T03:32:30;7.30;;;6.60;;
41141;SDS011;63666;52.284;20.890;2023-07-13T03:35:06;7.40;;;6.60;;
41141;SDS011;63666;52.284;20.890;2023-07-13T03:37:41;7.30;;;6.60;;
41141;SDS011;63666;52.284;20.890;2023-07-13T03:40:15;8.60;;;6.90;;
41141;SDS011;63666;52.284;20.890;2023-07-13T03:42:51;7.80;;;6.50;;
41141;SDS011;63666;52.284;20.890;2023-07-13T03:45:25;7.70;;;6.70;;
41141;SDS011;63666;52.284;20.890;2023-07-13T03:47:59;7.20;;;6.40;;
41141;SDS011;63666;52.284;20.890;2023-07-13T03:50:33;7.20;;;6.50;;
41141;SDS011;63666;52.284;20.890;2023-07-13T03:53:06;7.00;;;6.30;;
41141;SDS011;63666;52.284;20.890;2023-07-13T03:55:41;7.50;;;6.70;;
41141;SDS011;63666;52.284;20.890;2023-07-13T03:58:32;7.90;;;6.70;;
41141;SDS011;63666;52.284;20.890;2023-07-13T04:03:41;7.80;;;6.70;;
41141;SDS011;63666;52.284;20.890;2023-07-13T04:06:19;7.30;;;6.60;;
41141;SDS011;63666;52.284;20.890;2023-07-13T04:09:00;7.50;;;6.80;;
41141;SDS011;63666;52.284;20.890;2023-07-13T04:11:36;7.00;;;6.30;;
41141;SDS011;63666;52.284;20.890;2023-07-13T04:14:10;6.80;;;6.10;;
41141;SDS011;63666;52.284;20.890;2023-07-13T04:16:47;7.90;;;6.70;;
41141;SDS011;63666;52.284;20.890;2023-07-13T04:19:20;7.60;;;6.80;;
41141;SDS011;63666;52.284;20.890;2023-07-13T04:21:55;7.20;;;6.30;;
41141;SDS011;63666;52.284;20.890;2023-07-13T04:24:28;7.80;;;7.00;;
41141;SDS011;63666;52.284;20.890;2023-07-13T04:27:03;7.50;;;6.40;;
41141;SDS011;63666;52.284;20.890;2023-07-13T04:29:37;7.30;;;6.60;;
41141;SDS011;63666;52.284;20.890;2023-07-13T04:32:11;7.10;;;6.40;;
41141;SDS011;63666;52.284;20.890;2023-07-13T04:34:44;7.30;;;6.60;;
41141;SDS011;63666;52.284;20.890;2023-07-13T04:37:21;7.50;;;6.20;;
41141;SDS011;63666;52.284;20.890;2023-07-13T04:39:55;7.70;;;6.80;;
41141;SDS011;63666;52.284;20.890;2023-07-13T04:42:29;8.30;;;6.80;;
41141;SDS011;63666;52.284;20.890;2023-07-13T04:45:06;7.50;;;6.40;;
41141;SDS011;63666;52.284;20.890;2023-07-13T04:47:41;7.40;;;6.50;;
41141;SDS011;63666;52.284;20.890;2023-07-13T04:50:15;7.30;;;6.40;;
41141;SDS011;63666;52.284;20.890;2023-07-13T04:52:54;7.40;;;6.60;;
41141;SDS011;63666;52.284;20.890;2023-07-13T04:55:27;7.90;;;6.60;;
41141;SDS011;63666;52.284;20.890;2023-07-13T04:58:02;7.70;;;6.90;;
41141;SDS011;63666;52.284;20.890;2023-07-13T05:00:36;7.50;;;6.70;;
41141;SDS011;63666;52.284;20.890;2023-07-13T05:03:10;8.00;;;7.20;;
41141;SDS011;63666;52.284;20.890;2023-07-13T05:05:53;7.40;;;6.60;;
41141;SDS011;63666;52.284;20.890;2023-07-13T05:08:28;7.50;;;6.70;;
41141;SDS011;63666;52.284;20.890;2023-07-13T05:11:03;7.60;;;6.80;;
41141;SDS011;63666;52.284;20.890;2023-07-13T05:13:38;7.90;;;7.00;;
41141;SDS011;63666;52.284;20.890;2023-07-13T05:16:12;8.00;;;7.20;;
41141;SDS011;63666;52.284;20.890;2023-07-13T05:18:46;8.70;;;7.20;;
41141;SDS011;63666;52.284;20.890;2023-07-13T05:21:20;8.10;;;7.30;;
41141;SDS011;63666;52.284;20.890;2023-07-13T05:23:54;8.30;;;7.50;;
41141;SDS011;63666;52.284;20.890;2023-07-13T05:26:30;8.00;;;6.90;;
41141;SDS011;63666;52.284;20.890;2023-07-13T05:29:04;7.90;;;7.10;;
41141;SDS011;63666;52.284;20.890;2023-07-13T05:31:38;8.20;;;7.40;;
41141;SDS011;63666;52.284;20.890;2023-07-13T05:34:12;8.90;;;7.50;;
41141;SDS011;63666;52.284;20.890;2023-07-13T05:36:46;8.50;;;7.70;;
41141;SDS011;63666;52.284;20.890;2023-07-13T05:39:20;8.40;;;7.20;;
41141;SDS011;63666;52.284;20.890;2023-07-13T05:41:54;8.10;;;7.20;;
41141;SDS011;63666;52.284;20.890;2023-07-13T05:44:27;8.10;;;7.30;;
41141;SDS011;63666;52.284;20.890;2023-07-13T05:47:01;7.80;;;7.00;;
41141;SDS011;63666;52.284;20.890;2023-07-13T05:49:37;8.10;;;7.30;;
41141;SDS011;63666;52.284;20.890;2023-07-13T05:52:11;8.60;;;7.70;;
41141;SDS011;63666;52.284;20.890;2023-07-13T05:54:45;8.60;;;7.30;;
41141;SDS011;63666;52.284;20.890;2023-07-13T05:57:18;9.00;;;7.60;;
41141;SDS011;63666;52.284;20.890;2023-07-13T05:59:52;8.60;;;7.60;;
41141;SDS011;63666;52.284;20.890;2023-07-13T06:02:27;8.70;;;7.80;;
41141;SDS011;63666;52.284;20.890;2023-07-13T06:05:01;8.40;;;7.60;;
41141;SDS011;63666;52.284;20.890;2023-07-13T06:07:35;9.00;;;8.00;;
41141;SDS011;63666;52.284;20.890;2023-07-13T06:10:11;8.30;;;7.40;;
41141;SDS011;63666;52.284;20.890;2023-07-13T06:12:45;8.30;;;7.50;;
41141;SDS011;63666;52.284;20.890;2023-07-13T06:15:19;8.80;;;7.90;;
41141;SDS011;63666;52.284;20.890;2023-07-13T06:17:53;9.10;;;8.10;;
41141;SDS011;63666;52.284;20.890;2023-07-13T06:20:28;8.90;;;8.00;;
41141;SDS011;63666;52.284;20.890;2023-07-13T06:23:02;9.30;;;8.30;;
41141;SDS011;63666;52.284;20.890;2023-07-13T06:25:36;8.80;;;7.90;;
41141;SDS011;63666;52.284;20.890;2023-07-13T06:28:10;9.70;;;8.40;;
41141;SDS011;63666;52.284;20.890;2023-07-13T06:30:44;9.90;;;8.90;;
41141;SDS011;63666;52.284;20.890;2023-07-13T06:33:18;11.50;;;9.10;;
41141;SDS011;63666;52.284;20.890;2023-07-13T06:35:51;10.50;;;9.40;;
41141;SDS011;63666;52.284;20.890;2023-07-13T06:38:25;10.40;;;9.30;;
41141;SDS011;63666;52.284;20.890;2023-07-13T06:40:59;10.60;;;9.50;;
41141;SDS011;63666;52.284;20.890;2023-07-13T06:43:32;10.20;;;9.20;;
41141;SDS011;63666;52.284;20.890;2023-07-13T06:46:06;10.90;;;9.80;;
41141;SDS011;63666;52.284;20.890;2023-07-13T06:48:42;11.20;;;9.90;;
41141;SDS011;63666;52.284;20.890;2023-07-13T06:51:16;10.80;;;9.70;;
41141;SDS011;63666;52.284;20.890;2023-07-13T06:53:50;11.90;;;10.40;;
41141;SDS011;63666;52.284;20.890;2023-07-13T06:56:25;12.10;;;10.00;;
41141;SDS011;63666;52.284;20.890;2023-07-13T06:58:59;11.00;;;9.80;;
41141;SDS011;63666;52.284;20.890;2023-07-13T07:01:33;13.40;;;10.80;;
41141;SDS011;63666;52.284;20.890;2023-07-13T07:04:10;10.80;;;9.70;;
41141;SDS011;63666;52.284;20.890;2023-07-13T07:06:44;11.30;;;10.10;;
41141;SDS011;63666;52.284;20.890;2023-07-13T07:09:17;13.30;;;9.50;;
41141;SDS011;63666;52.284;20.890;2023-07-13T07:11:52;9.90;;;8.80;;
41141;SDS011;63666;52.284;20.890;2023-07-13T07:14:34;11.00;;;8.40;;
41141;SDS011;63666;52.284;20.890;2023-07-13T07:17:08;9.30;;;8.20;;
41141;SDS011;63666;52.284;20.890;2023-07-13T07:19:42;10.10;;;8.60;;
41141;SDS011;63666;52.284;20.890;2023-07-13T07:22:16;9.50;;;7.90;;
41141;SDS011;63666;52.284;20.890;2023-07-13T07:24:50;10.10;;;8.10;;
41141;SDS011;63666;52.284;20.890;2023-07-13T07:27:25;13.70;;;11.60;;
41141;SDS011;63666;52.284;20.890;2023-07-13T07:30:03;10.20;;;8.70;;
41141;SDS011;63666;52.284;20.890;2023-07-13T07:32:41;10.70;;;8.70;;
41141;SDS011;63666;52.284;20.890;2023-07-13T07:35:19;9.60;;;8.60;;
41141;SDS011;63666;52.284;20.890;2023-07-13T07:37:53;9.50;;;8.10;;
41141;SDS011;63666;52.284;20.890;2023-07-13T07:40:27;10.20;;;8.00;;
41141;SDS011;63666;52.284;20.890;2023-07-13T07:43:05;9.80;;;7.50;;
41141;SDS011;63666;52.284;20.890;2023-07-13T07:45:40;14.10;;;9.50;;
41141;SDS011;63666;52.284;20.890;2023-07-13T07:48:16;16.30;;;10.80;;
41141;SDS011;63666;52.284;20.890;2023-07-13T07:50:50;15.40;;;10.80;;
41141;SDS011;63666;52.284;20.890;2023-07-13T07:53:23;14.40;;;9.80;;
41141;SDS011;63666;52.284;20.890;2023-07-13T07:55:57;11.70;;;8.90;;
41141;SDS011;63666;52.284;20.890;2023-07-13T07:58:51;11.20;;;8.10;;
41141;SDS011;63666;52.284;20.890;2023-07-13T08:01:28;12.60;;;8.50;;
41141;SDS011;63666;52.284;20.890;2023-07-13T08:04:05;15.40;;;10.10;;
41141;SDS011;63666;52.284;20.890;2023-07-13T08:07:00;14.40;;;8.90;;
41141;SDS011;63666;52.284;20.890;2023-07-13T08:09:34;10.00;;;7.40;;
41141;SDS011;63666;52.284;20.890;2023-07-13T08:12:10;10.20;;;7.40;;
41141;SDS011;63666;52.284;20.890;2023-07-13T08:14:47;10.20;;;7.70;;
41141;SDS011;63666;52.284;20.890;2023-07-13T08:17:24;9.80;;;7.20;;
41141;SDS011;63666;52.284;20.890;2023-07-13T08:19:59;9.70;;;7.50;;
41141;SDS011;63666;52.284;20.890;2023-07-13T08:22:33;9.00;;;7.50;;
41141;SDS011;63666;52.284;20.890;2023-07-13T08:25:09;8.40;;;7.00;;
41141;SDS011;63666;52.284;20.890;2023-07-13T08:27:43;9.00;;;7.00;;
41141;SDS011;63666;52.284;20.890;2023-07-13T08:30:16;8.10;;;6.10;;
41141;SDS011;63666;52.284;20.890;2023-07-13T08:32:50;8.10;;;6.40;;
41141;SDS011;63666;52.284;20.890;2023-07-13T08:35:25;7.40;;;5.90;;
41141;SDS011;63666;52.284;20.890;2023-07-13T08:37:58;8.90;;;6.10;;
41141;SDS011;63666;52.284;20.890;2023-07-13T08:40:35;7.00;;;5.60;;
41141;SDS011;63666;52.284;20.890;2023-07-13T08:43:13;7.70;;;5.80;;
41141;SDS011;63666;52.284;20.890;2023-07-13T08:45:53;6.40;;;5.40;;
41141;SDS011;63666;52.284;20.890;2023-07-13T08:48:31;6.80;;;5.60;;
41141;SDS011;63666;52.284;20.890;2023-07-13T08:51:12;7.10;;;5.80;;
41141;SDS011;63666;52.284;20.890;2023-07-13T08:53:58;6.90;;;5.40;;
41141;SDS011;63666;52.284;20.890;2023-07-13T08:56:34;6.10;;;5.20;;
41141;SDS011;63666;52.284;20.890;2023-07-13T08:59:15;6.30;;;5.20;;
41141;SDS011;63666;52.284;20.890;2023-07-13T09:02:00;7.40;;;5.90;;
41141;SDS011;63666;52.284;20.890;2023-07-13T09:04:46;6.80;;;5.50;;
41141;SDS011;63666;52.284;20.890;2023-07-13T09:07:31;7.20;;;5.70;;
41141;SDS011;63666;52.284;20.890;2023-07-13T09:10:20;6.30;;;5.10;;
41141;SDS011;63666;52.284;20.890;2023-07-13T09:13:05;7.00;;;5.70;;
41141;SDS011;63666;52.284;20.890;2023-07-13T09:15:48;6.80;;;5.40;;
41141;SDS011;63666;52.284;20.890;2023-07-13T09:18:27;6.60;;;5.80;;
41141;SDS011;63666;52.284;20.890;2023-07-13T09:21:10;6.50;;;5.30;;
41141;SDS011;63666;52.284;20.890;2023-07-13T09:23:48;7.40;;;5.30;;
41141;SDS011;63666;52.284;20.890;2023-07-13T09:26:29;6.90;;;5.50;;
41141;SDS011;63666;52.284;20.890;2023-07-13T09:29:23;8.40;;;5.40;;
41141;SDS011;63666;52.284;20.890;2023-07-13T09:32:04;8.30;;;5.50;;
41141;SDS011;63666;52.284;20.890;2023-07-13T09:34:41;6.90;;;5.40;;
41141;SDS011;63666;52.284;20.890;2023-07-13T09:37:15;7.40;;;4.80;;
41141;SDS011;63666;52.284;20.890;2023-07-13T09:39:50;7.20;;;4.50;;
41141;SDS011;63666;52.284;20.890;2023-07-13T09:42:26;7.20;;;4.40;;
41141;SDS011;63666;52.284;20.890;2023-07-13T09:45:02;7.90;;;4.00;;
41141;SDS011;63666;52.284;20.890;2023-07-13T09:47:41;8.00;;;3.80;;
41141;SDS011;63666;52.284;20.890;2023-07-13T09:50:17;6.00;;;4.10;;
41141;SDS011;63666;52.284;20.890;2023-07-13T09:52:51;8.20;;;3.90;;
41141;SDS011;63666;52.284;20.890;2023-07-13T09:55:32;7.60;;;3.80;;
41141;SDS011;63666;52.284;20.890;2023-07-13T09:58:12;6.10;;;3.60;;
41141;SDS011;63666;52.284;20.890;2023-07-13T10:00:58;8.20;;;4.00;;
41141;SDS011;63666;52.284;20.890;2023-07-13T10:03:40;7.20;;;3.80;;
41141;SDS011;63666;52.284;20.890;2023-07-13T10:06:25;8.40;;;3.80;;
41141;SDS011;63666;52.284;20.890;2023-07-13T10:08:59;9.40;;;3.90;;
41141;SDS011;63666;52.284;20.890;2023-07-13T10:11:36;6.80;;;3.80;;
41141;SDS011;63666;52.284;20.890;2023-07-13T10:14:14;6.20;;;4.10;;
41141;SDS011;63666;52.284;20.890;2023-07-13T10:16:55;9.00;;;4.20;;
41141;SDS011;63666;52.284;20.890;2023-07-13T10:19:35;7.80;;;4.20;;
41141;SDS011;63666;52.284;20.890;2023-07-13T10:22:22;8.80;;;4.40;;
41141;SDS011;63666;52.284;20.890;2023-07-13T10:25:00;8.30;;;3.90;;
41141;SDS011;63666;52.284;20.890;2023-07-13T10:27:40;6.50;;;4.10;;
41141;SDS011;63666;52.284;20.890;2023-07-13T10:30:17;6.00;;;4.10;;
41141;SDS011;63666;52.284;20.890;2023-07-13T10:35:34;6.70;;;4.10;;
41141;SDS011;63666;52.284;20.890;2023-07-13T10:38:23;6.90;;;4.10;;
41141;SDS011;63666;52.284;20.890;2023-07-13T10:41:02;5.40;;;4.10;;
41141;SDS011;63666;52.284;20.890;2023-07-13T10:43:41;6.80;;;4.10;;
41141;SDS011;63666;52.284;20.890;2023-07-13T10:46:17;6.30;;;4.20;;
41141;SDS011;63666;52.284;20.890;2023-07-13T10:48:57;5.60;;;4.20;;
41141;SDS011;63666;52.284;20.890;2023-07-13T10:51:33;8.00;;;4.30;;
41141;SDS011;63666;52.284;20.890;2023-07-13T10:54:20;6.50;;;4.00;;
41141;SDS011;63666;52.284;20.890;2023-07-13T10:57:13;6.30;;;4.20;;
41141;SDS011;63666;52.284;20.890;2023-07-13T11:00:14;5.30;;;3.60;;
41141;SDS011;63666;52.284;20.890;2023-07-13T11:02:59;7.00;;;4.40;;
41141;SDS011;63666;52.284;20.890;2023-07-13T11:05:37;6.60;;;3.80;;
41141;SDS011;63666;52.284;20.890;2023-07-13T11:08:32;5.80;;;3.80;;
41141;SDS011;63666;52.284;20.890;2023-07-13T11:11:38;7.70;;;3.80;;
41141;SDS011;63666;52.284;20.890;2023-07-13T11:14:42;5.80;;;3.90;;
41141;SDS011;63666;52.284;20.890;2023-07-13T11:17:47;6.40;;;4.10;;
41141;SDS011;63666;52.284;20.890;2023-07-13T11:20:35;6.50;;;3.80;;
41141;SDS011;63666;52.284;20.890;2023-07-13T11:23:29;6.80;;;4.20;;
41141;SDS011;63666;52.284;20.890;2023-07-13T11:26:04;6.20;;;4.20;;
41141;SDS011;63666;52.284;20.890;2023-07-13T11:29:27;6.80;;;4.00;;
41141;SDS011;63666;52.284;20.890;2023-07-13T11:35:08;5.90;;;3.90;;
41141;SDS011;63666;52.284;20.890;2023-07-13T11:37:46;6.70;;;3.80;;
41141;SDS011;63666;52.284;20.890;2023-07-13T11:40:24;6.40;;;3.90;;
41141;SDS011;63666;52.284;20.890;2023-07-13T11:43:02;6.70;;;4.30;;
41141;SDS011;63666;52.284;20.890;2023-07-13T11:45:40;6.60;;;3.90;;
41141;SDS011;63666;52.284;20.890;2023-07-13T11:48:25;6.80;;;4.50;;
41141;SDS011;63666;52.284;20.890;2023-07-13T11:51:04;7.40;;;4.00;;
41141;SDS011;63666;52.284;20.890;2023-07-13T11:53:44;5.90;;;4.20;;
41141;SDS011;63666;52.284;20.890;2023-07-13T11:56:20;6.30;;;4.00;;
41141;SDS011;63666;52.284;20.890;2023-07-13T11:58:56;6.40;;;4.20;;
41141;SDS011;63666;52.284;20.890;2023-07-13T12:01:41;5.60;;;3.90;;
41141;SDS011;63666;52.284;20.890;2023-07-13T12:07:04;6.10;;;4.10;;
41141;SDS011;63666;52.284;20.890;2023-07-13T12:09:44;6.30;;;4.20;;
41141;SDS011;63666;52.284;20.890;2023-07-13T12:12:22;8.10;;;4.50;;
41141;SDS011;63666;52.284;20.890;2023-07-13T12:15:03;7.30;;;4.50;;
41141;SDS011;63666;52.284;20.890;2023-07-13T12:17:40;7.80;;;4.70;;
41141;SDS011;63666;52.284;20.890;2023-07-13T12:20:21;6.80;;;4.40;;
41141;SDS011;63666;52.284;20.890;2023-07-13T12:22:58;6.60;;;4.30;;
41141;SDS011;63666;52.284;20.890;2023-07-13T12:25:39;6.10;;;4.00;;
41141;SDS011;63666;52.284;20.890;2023-07-13T12:28:34;7.20;;;4.40;;
41141;SDS011;63666;52.284;20.890;2023-07-13T12:31:26;6.00;;;4.10;;
41141;SDS011;63666;52.284;20.890;2023-07-13T12:34:09;6.10;;;4.30;;
41141;SDS011;63666;52.284;20.890;2023-07-13T12:36:49;6.60;;;4.30;;
41141;SDS011;63666;52.284;20.890;2023-07-13T12:39:29;6.50;;;4.20;;
41141;SDS011;63666;52.284;20.890;2023-07-13T12:42:20;6.20;;;4.10;;
41141;SDS011;63666;52.284;20.890;2023-07-13T12:45:01;5.70;;;4.40;;
41141;SDS011;63666;52.284;20.890;2023-07-13T12:47:53;6.70;;;4.70;;
41141;SDS011;63666;52.284;20.890;2023-07-13T12:50:36;6.10;;;4.50;;
41141;SDS011;63666;52.284;20.890;2023-07-13T12:53:15;5.70;;;4.10;;
41141;SDS011;63666;52.284;20.890;2023-07-13T12:55:52;5.30;;;4.00;;
41141;SDS011;63666;52.284;20.890;2023-07-13T12:58:32;6.10;;;4.30;;
41141;SDS011;63666;52.284;20.890;2023-07-13T13:01:09;5.30;;;4.00;;
41141;SDS011;63666;52.284;20.890;2023-07-13T13:03:50;6.80;;;4.50;;
41141;SDS011;63666;52.284;20.890;2023-07-13T13:06:28;5.90;;;4.00;;
41141;SDS011;63666;52.284;20.890;2023-07-13T13:09:03;6.40;;;4.30;;
41141;SDS011;63666;52.284;20.890;2023-07-13T13:11:38;6.60;;;4.30;;
41141;SDS011;63666;52.284;20.890;2023-07-13T13:14:12;5.50;;;4.30;;
41141;SDS011;63666;52.284;20.890;2023-07-13T13:16:49;5.80;;;4.20;;
41141;SDS011;63666;52.284;20.890;2023-07-13T13:19:27;7.20;;;4.30;;
41141;SDS011;63666;52.284;20.890;2023-07-13T13:22:02;6.10;;;4.30;;
41141;SDS011;63666;52.284;20.890;2023-07-13T13:24:41;6.00;;;4.10;;
41141;SDS011;63666;52.284;20.890;2023-07-13T13:27:20;6.10;;;4.10;;
41141;SDS011;63666;52.284;20.890;2023-07-13T13:29:55;5.60;;;4.00;;
41141;SDS011;63666;52.284;20.890;2023-07-13T13:32:30;5.80;;;4.10;;
41141;SDS011;63666;52.284;20.890;2023-07-13T13:35:05;5.60;;;3.90;;
41141;SDS011;63666;52.284;20.890;2023-07-13T13:37:45;7.10;;;4.60;;
41141;SDS011;63666;52.284;20.890;2023-07-13T13:40:22;7.10;;;4.50;;
41141;SDS011;63666;52.284;20.890;2023-07-13T13:42:58;6.40;;;4.40;;
41141;SDS011;63666;52.284;20.890;2023-07-13T13:45:32;6.60;;;4.60;;
41141;SDS011;63666;52.284;20.890;2023-07-13T13:48:09;6.00;;;4.50;;
41141;SDS011;63666;52.284;20.890;2023-07-13T13:50:48;6.80;;;4.50;;
41141;SDS011;63666;52.284;20.890;2023-07-13T13:53:22;6.70;;;4.70;;
41141;SDS011;63666;52.284;20.890;2023-07-13T13:55:56;6.50;;;4.70;;
41141;SDS011;63666;52.284;20.890;2023-07-13T13:58:34;6.40;;;5.00;;
41141;SDS011;63666;52.284;20.890;2023-07-13T14:01:19;6.70;;;4.60;;
41141;SDS011;63666;52.284;20.890;2023-07-13T14:03:56;6.70;;;4.70;;
41141;SDS011;63666;52.284;20.890;2023-07-13T14:06:30;6.90;;;5.30;;
41141;SDS011;63666;52.284;20.890;2023-07-13T14:09:08;6.90;;;5.50;;
41141;SDS011;63666;52.284;20.890;2023-07-13T14:11:43;7.10;;;5.10;;
41141;SDS011;63666;52.284;20.890;2023-07-13T14:14:23;7.30;;;4.80;;
41141;SDS011;63666;52.284;20.890;2023-07-13T14:16:58;6.70;;;5.10;;
41141;SDS011;63666;52.284;20.890;2023-07-13T14:19:36;7.50;;;4.80;;
41141;SDS011;63666;52.284;20.890;2023-07-13T14:22:10;6.40;;;4.80;;
41141;SDS011;63666;52.284;20.890;2023-07-13T14:24:45;6.20;;;4.80;;
41141;SDS011;63666;52.284;20.890;2023-07-13T14:27:20;6.40;;;4.90;;
41141;SDS011;63666;52.284;20.890;2023-07-13T14:29:54;6.50;;;4.40;;
41141;SDS011;63666;52.284;20.890;2023-07-13T14:32:28;6.60;;;5.10;;
41141;SDS011;63666;52.284;20.890;2023-07-13T14:35:04;6.60;;;5.00;;
41141;SDS011;63666;52.284;20.890;2023-07-13T14:37:40;7.00;;;5.10;;
41141;SDS011;63666;52.284;20.890;2023-07-13T14:40:19;6.80;;;5.00;;
41141;SDS011;63666;52.284;20.890;2023-07-13T14:42:57;8.00;;;5.20;;
41141;SDS011;63666;52.284;20.890;2023-07-13T14:45:32;6.30;;;4.80;;
41141;SDS011;63666;52.284;20.890;2023-07-13T14:48:14;6.60;;;4.90;;
41141;SDS011;63666;52.284;20.890;2023-07-13T14:50:53;8.10;;;5.00;;
41141;SDS011;63666;52.284;20.890;2023-07-13T14:53:29;6.20;;;4.90;;
41141;SDS011;63666;52.284;20.890;2023-07-13T14:56:04;8.30;;;5.90;;
41141;SDS011;63666;52.284;20.890;2023-07-13T14:58:44;7.80;;;5.70;;
41141;SDS011;63666;52.284;20.890;2023-07-13T15:01:19;8.10;;;5.50;;
41141;SDS011;63666;52.284;20.890;2023-07-13T15:03:54;7.30;;;5.10;;
41141;SDS011;63666;52.284;20.890;2023-07-13T15:06:28;7.30;;;5.60;;
41141;SDS011;63666;52.284;20.890;2023-07-13T15:09:03;6.80;;;5.30;;
41141;SDS011;63666;52.284;20.890;2023-07-13T15:11:39;6.80;;;4.90;;
41141;SDS011;63666;52.284;20.890;2023-07-13T15:14:13;6.80;;;5.30;;
41141;SDS011;63666;52.284;20.890;2023-07-13T15:16:49;7.20;;;5.20;;
41141;SDS011;63666;52.284;20.890;2023-07-13T15:19:25;6.50;;;4.90;;
41141;SDS011;63666;52.284;20.890;2023-07-13T15:21:59;6.60;;;5.00;;
41141;SDS011;63666;52.284;20.890;2023-07-13T15:24:34;7.10;;;5.10;;
41141;SDS011;63666;52.284;20.890;2023-07-13T15:27:11;6.70;;;5.10;;
41141;SDS011;63666;52.284;20.890;2023-07-13T15:29:45;7.20;;;5.20;;
41141;SDS011;63666;52.284;20.890;2023-07-13T15:32:19;7.00;;;5.10;;
41141;SDS011;63666;52.284;20.890;2023-07-13T15:34:57;7.10;;;5.30;;
41141;SDS011;63666;52.284;20.890;2023-07-13T15:37:31;8.50;;;5.10;;
41141;SDS011;63666;52.284;20.890;2023-07-13T15:40:08;7.60;;;5.40;;
41141;SDS011;63666;52.284;20.890;2023-07-13T15:42:45;7.70;;;5.80;;
41141;SDS011;63666;52.284;20.890;2023-07-13T15:45:22;8.60;;;6.20;;